sensor_id;sensor_type;location;lat;lon;timestamp;P1;durP1;ratioP1;P2;durP2;ratioP2
37091;SDS011;23005;51.998;4.502;2023-05-07T00:00:18;48.93;;;31.40;;
37091;SDS011;23005;51.998;4.502;2023-05-07T00:01:38;49.53;;;31.10;;
37091;SDS011;23005;51.998;4.502;2023-05-07T00:03:01;43.08;;;28.77;;
37091;SDS011;23005;51.998;4.502;2023-05-07T00:04:21;46.65;;;31.83;;
37091;SDS011;23005;51.998;4.502;2023-05-07T00:05:42;51.80;;;31.50;;
37091;SDS011;23005;51.998;4.502;2023-05-07T00:07:03;38.80;;;28.77;;
37091;SDS011;23005;51.998;4.502;2023-05-07T00:08:23;46.03;;;31.65;;
37091;SDS011;23005;51.998;4.502;2023-05-07T00:09:44;51.17;;;31.88;;
37091;SDS011;23005;51.998;4.502;2023-05-07T00:11:05;43.97;;;30.47;;
37091;SDS011;23005;51.998;4.502;2023-05-07T00:12:25;46.73;;;31.87;;
37091;SDS011;23005;51.998;4.502;2023-05-07T00:13:47;38.90;;;28.63;;
37091;SDS011;23005;51.998;4.502;2023-05-07T00:15:07;41.40;;;31.08;;
37091;SDS011;23005;51.998;4.502;2023-05-07T00:16:29;40.38;;;29.90;;
37091;SDS011;23005;51.998;4.502;2023-05-07T00:17:50;47.08;;;33.05;;
37091;SDS011;23005;51.998;4.502;2023-05-07T00:19:12;44.42;;;32.00;;
37091;SDS011;23005;51.998;4.502;2023-05-07T00:20:33;45.38;;;32.50;;
37091;SDS011;23005;51.998;4.502;2023-05-07T00:21:55;43.22;;;30.27;;
37091;SDS011;23005;51.998;4.502;2023-05-07T00:23:16;45.95;;;32.85;;
37091;SDS011;23005;51.998;4.502;2023-05-07T00:24:36;41.10;;;29.00;;
37091;SDS011;23005;51.998;4.502;2023-05-07T00:25:57;40.03;;;30.10;;
37091;SDS011;23005;51.998;4.502;2023-05-07T00:27:18;48.53;;;31.45;;
37091;SDS011;23005;51.998;4.502;2023-05-07T00:28:38;41.03;;;30.33;;
37091;SDS011;23005;51.998;4.502;2023-05-07T00:29:59;38.43;;;29.67;;
37091;SDS011;23005;51.998;4.502;2023-05-07T00:31:20;44.28;;;31.20;;
37091;SDS011;23005;51.998;4.502;2023-05-07T00:32:40;37.85;;;28.40;;
37091;SDS011;23005;51.998;4.502;2023-05-07T00:34:01;38.60;;;28.67;;
37091;SDS011;23005;51.998;4.502;2023-05-07T00:35:23;47.22;;;32.40;;
37091;SDS011;23005;51.998;4.502;2023-05-07T00:36:43;39.33;;;29.63;;
37091;SDS011;23005;51.998;4.502;2023-05-07T00:38:06;39.35;;;29.95;;
37091;SDS011;23005;51.998;4.502;2023-05-07T00:39:27;38.97;;;30.35;;
37091;SDS011;23005;51.998;4.502;2023-05-07T00:40:48;41.25;;;29.73;;
37091;SDS011;23005;51.998;4.502;2023-05-07T00:42:08;40.42;;;30.05;;
37091;SDS011;23005;51.998;4.502;2023-05-07T00:43:29;39.50;;;28.77;;
37091;SDS011;23005;51.998;4.502;2023-05-07T00:44:49;38.65;;;28.30;;
37091;SDS011;23005;51.998;4.502;2023-05-07T00:46:10;41.38;;;29.63;;
37091;SDS011;23005;51.998;4.502;2023-05-07T00:47:31;41.70;;;30.13;;
37091;SDS011;23005;51.998;4.502;2023-05-07T00:48:51;39.20;;;29.77;;
37091;SDS011;23005;51.998;4.502;2023-05-07T00:50:12;40.73;;;28.30;;
37091;SDS011;23005;51.998;4.502;2023-05-07T00:51:34;42.53;;;31.33;;
37091;SDS011;23005;51.998;4.502;2023-05-07T00:54:15;45.97;;;31.40;;
37091;SDS011;23005;51.998;4.502;2023-05-07T00:55:36;45.70;;;30.40;;
37091;SDS011;23005;51.998;4.502;2023-05-07T00:58:18;40.25;;;28.67;;
37091;SDS011;23005;51.998;4.502;2023-05-07T01:01:00;44.17;;;30.52;;
37091;SDS011;23005;51.998;4.502;2023-05-07T01:02:21;47.10;;;30.60;;
37091;SDS011;23005;51.998;4.502;2023-05-07T01:03:42;44.42;;;31.38;;
37091;SDS011;23005;51.998;4.502;2023-05-07T01:05:03;36.92;;;28.35;;
37091;SDS011;23005;51.998;4.502;2023-05-07T01:06:26;41.28;;;31.00;;
37091;SDS011;23005;51.998;4.502;2023-05-07T01:09:09;41.42;;;29.90;;
37091;SDS011;23005;51.998;4.502;2023-05-07T01:10:30;42.47;;;29.17;;
37091;SDS011;23005;51.998;4.502;2023-05-07T01:11:50;41.97;;;29.45;;
37091;SDS011;23005;51.998;4.502;2023-05-07T01:13:11;42.22;;;31.50;;
37091;SDS011;23005;51.998;4.502;2023-05-07T01:15:54;44.80;;;30.55;;
37091;SDS011;23005;51.998;4.502;2023-05-07T01:17:15;42.77;;;28.73;;
37091;SDS011;23005;51.998;4.502;2023-05-07T01:19:57;42.35;;;30.02;;
37091;SDS011;23005;51.998;4.502;2023-05-07T01:21:17;40.55;;;28.33;;
37091;SDS011;23005;51.998;4.502;2023-05-07T01:22:39;44.80;;;32.17;;
37091;SDS011;23005;51.998;4.502;2023-05-07T01:24:00;39.75;;;30.70;;
37091;SDS011;23005;51.998;4.502;2023-05-07T01:25:21;45.60;;;32.70;;
37091;SDS011;23005;51.998;4.502;2023-05-07T01:26:42;46.83;;;31.27;;
37091;SDS011;23005;51.998;4.502;2023-05-07T01:28:02;39.25;;;29.08;;
37091;SDS011;23005;51.998;4.502;2023-05-07T01:29:22;42.47;;;30.20;;
37091;SDS011;23005;51.998;4.502;2023-05-07T01:30:43;39.75;;;29.83;;
37091;SDS011;23005;51.998;4.502;2023-05-07T01:32:06;36.08;;;27.70;;
37091;SDS011;23005;51.998;4.502;2023-05-07T01:33:27;49.72;;;32.30;;
37091;SDS011;23005;51.998;4.502;2023-05-07T01:34:49;42.70;;;31.08;;
37091;SDS011;23005;51.998;4.502;2023-05-07T01:36:09;45.08;;;31.75;;
37091;SDS011;23005;51.998;4.502;2023-05-07T01:37:32;41.13;;;29.20;;
37091;SDS011;23005;51.998;4.502;2023-05-07T01:38:53;38.35;;;28.17;;
37091;SDS011;23005;51.998;4.502;2023-05-07T01:40:14;39.70;;;28.20;;
37091;SDS011;23005;51.998;4.502;2023-05-07T01:41:35;44.42;;;30.02;;
37091;SDS011;23005;51.998;4.502;2023-05-07T01:42:55;43.80;;;29.80;;
37091;SDS011;23005;51.998;4.502;2023-05-07T01:44:16;44.47;;;30.77;;
37091;SDS011;23005;51.998;4.502;2023-05-07T01:45:38;40.33;;;31.05;;
37091;SDS011;23005;51.998;4.502;2023-05-07T01:46:58;42.67;;;31.00;;
37091;SDS011;23005;51.998;4.502;2023-05-07T01:48:19;40.08;;;29.55;;
37091;SDS011;23005;51.998;4.502;2023-05-07T01:49:40;44.45;;;30.70;;
37091;SDS011;23005;51.998;4.502;2023-05-07T01:51:01;44.85;;;31.15;;
37091;SDS011;23005;51.998;4.502;2023-05-07T01:52:22;35.70;;;27.50;;
37091;SDS011;23005;51.998;4.502;2023-05-07T01:53:43;44.65;;;30.48;;
37091;SDS011;23005;51.998;4.502;2023-05-07T01:55:05;41.15;;;29.27;;
37091;SDS011;23005;51.998;4.502;2023-05-07T01:56:26;42.88;;;30.88;;
37091;SDS011;23005;51.998;4.502;2023-05-07T01:57:47;42.53;;;31.17;;
37091;SDS011;23005;51.998;4.502;2023-05-07T01:59:07;40.85;;;31.35;;
37091;SDS011;23005;51.998;4.502;2023-05-07T02:00:28;45.85;;;30.55;;
37091;SDS011;23005;51.998;4.502;2023-05-07T02:01:49;39.00;;;28.63;;
37091;SDS011;23005;51.998;4.502;2023-05-07T02:03:10;41.03;;;30.92;;
37091;SDS011;23005;51.998;4.502;2023-05-07T02:04:30;43.80;;;31.25;;
37091;SDS011;23005;51.998;4.502;2023-05-07T02:05:51;39.05;;;27.98;;
37091;SDS011;23005;51.998;4.502;2023-05-07T02:07:12;42.27;;;30.43;;
37091;SDS011;23005;51.998;4.502;2023-05-07T02:08:32;34.93;;;27.23;;
37091;SDS011;23005;51.998;4.502;2023-05-07T02:09:55;36.13;;;27.38;;
37091;SDS011;23005;51.998;4.502;2023-05-07T02:11:17;38.75;;;30.48;;
37091;SDS011;23005;51.998;4.502;2023-05-07T02:12:37;37.70;;;29.02;;
37091;SDS011;23005;51.998;4.502;2023-05-07T02:13:58;39.90;;;30.67;;
37091;SDS011;23005;51.998;4.502;2023-05-07T02:15:19;35.05;;;28.40;;
37091;SDS011;23005;51.998;4.502;2023-05-07T02:16:39;39.50;;;31.15;;
37091;SDS011;23005;51.998;4.502;2023-05-07T02:18:00;44.22;;;33.85;;
37091;SDS011;23005;51.998;4.502;2023-05-07T02:19:21;44.95;;;32.55;;
37091;SDS011;23005;51.998;4.502;2023-05-07T02:20:42;39.73;;;31.50;;
37091;SDS011;23005;51.998;4.502;2023-05-07T02:22:03;37.80;;;28.88;;
37091;SDS011;23005;51.998;4.502;2023-05-07T02:23:23;39.17;;;28.73;;
37091;SDS011;23005;51.998;4.502;2023-05-07T02:24:44;34.27;;;29.50;;
37091;SDS011;23005;51.998;4.502;2023-05-07T02:26:07;41.00;;;29.85;;
37091;SDS011;23005;51.998;4.502;2023-05-07T02:27:28;34.40;;;28.42;;
37091;SDS011;23005;51.998;4.502;2023-05-07T02:28:49;36.20;;;29.30;;
37091;SDS011;23005;51.998;4.502;2023-05-07T02:30:10;37.58;;;29.00;;
37091;SDS011;23005;51.998;4.502;2023-05-07T02:31:31;47.58;;;31.45;;
37091;SDS011;23005;51.998;4.502;2023-05-07T02:32:51;43.30;;;31.85;;
37091;SDS011;23005;51.998;4.502;2023-05-07T02:34:12;39.25;;;28.67;;
37091;SDS011;23005;51.998;4.502;2023-05-07T02:35:32;36.67;;;29.55;;
37091;SDS011;23005;51.998;4.502;2023-05-07T02:36:53;42.53;;;32.92;;
37091;SDS011;23005;51.998;4.502;2023-05-07T02:38:13;37.33;;;29.25;;
37091;SDS011;23005;51.998;4.502;2023-05-07T02:39:34;34.58;;;27.73;;
37091;SDS011;23005;51.998;4.502;2023-05-07T02:40:55;38.20;;;29.98;;
37091;SDS011;23005;51.998;4.502;2023-05-07T02:42:15;38.58;;;30.77;;
37091;SDS011;23005;51.998;4.502;2023-05-07T02:43:37;40.47;;;30.02;;
37091;SDS011;23005;51.998;4.502;2023-05-07T02:44:58;39.83;;;30.02;;
37091;SDS011;23005;51.998;4.502;2023-05-07T02:46:18;39.38;;;31.75;;
37091;SDS011;23005;51.998;4.502;2023-05-07T02:47:39;40.03;;;30.90;;
37091;SDS011;23005;51.998;4.502;2023-05-07T02:49:00;37.50;;;27.67;;
37091;SDS011;23005;51.998;4.502;2023-05-07T02:50:20;34.15;;;27.48;;
37091;SDS011;23005;51.998;4.502;2023-05-07T02:51:41;36.42;;;28.75;;
37091;SDS011;23005;51.998;4.502;2023-05-07T02:53:02;34.00;;;27.60;;
37091;SDS011;23005;51.998;4.502;2023-05-07T02:54:22;34.97;;;27.63;;
37091;SDS011;23005;51.998;4.502;2023-05-07T02:55:42;33.08;;;26.70;;
37091;SDS011;23005;51.998;4.502;2023-05-07T02:57:05;35.83;;;27.98;;
37091;SDS011;23005;51.998;4.502;2023-05-07T02:58:26;32.90;;;27.45;;
37091;SDS011;23005;51.998;4.502;2023-05-07T02:59:48;40.25;;;31.30;;
37091;SDS011;23005;51.998;4.502;2023-05-07T03:01:19;35.45;;;27.98;;
37091;SDS011;23005;51.998;4.502;2023-05-07T03:02:40;35.93;;;28.47;;
37091;SDS011;23005;51.998;4.502;2023-05-07T03:04:01;34.45;;;28.35;;
37091;SDS011;23005;51.998;4.502;2023-05-07T03:05:22;33.78;;;29.85;;
37091;SDS011;23005;51.998;4.502;2023-05-07T03:06:42;36.10;;;29.42;;
37091;SDS011;23005;51.998;4.502;2023-05-07T03:08:03;32.08;;;25.42;;
37091;SDS011;23005;51.998;4.502;2023-05-07T03:09:24;36.25;;;28.83;;
37091;SDS011;23005;51.998;4.502;2023-05-07T03:10:45;32.97;;;27.03;;
37091;SDS011;23005;51.998;4.502;2023-05-07T03:12:06;35.20;;;28.15;;
37091;SDS011;23005;51.998;4.502;2023-05-07T03:13:27;31.20;;;26.80;;
37091;SDS011;23005;51.998;4.502;2023-05-07T03:14:49;38.83;;;30.67;;
37091;SDS011;23005;51.998;4.502;2023-05-07T03:16:09;36.80;;;28.20;;
37091;SDS011;23005;51.998;4.502;2023-05-07T03:17:30;36.17;;;27.50;;
37091;SDS011;23005;51.998;4.502;2023-05-07T03:18:50;32.53;;;25.58;;
37091;SDS011;23005;51.998;4.502;2023-05-07T03:20:11;32.13;;;26.98;;
37091;SDS011;23005;51.998;4.502;2023-05-07T03:21:32;28.83;;;24.77;;
37091;SDS011;23005;51.998;4.502;2023-05-07T03:22:53;30.73;;;25.77;;
37091;SDS011;23005;51.998;4.502;2023-05-07T03:24:13;28.63;;;24.50;;
37091;SDS011;23005;51.998;4.502;2023-05-07T03:25:34;29.50;;;25.27;;
37091;SDS011;23005;51.998;4.502;2023-05-07T03:26:54;36.05;;;28.85;;
37091;SDS011;23005;51.998;4.502;2023-05-07T03:28:15;34.03;;;24.57;;
37091;SDS011;23005;51.998;4.502;2023-05-07T03:29:36;29.20;;;23.20;;
37091;SDS011;23005;51.998;4.502;2023-05-07T03:30:57;30.70;;;24.63;;
37091;SDS011;23005;51.998;4.502;2023-05-07T03:33:39;29.45;;;24.58;;
37091;SDS011;23005;51.998;4.502;2023-05-07T03:35:10;29.48;;;25.65;;
37091;SDS011;23005;51.998;4.502;2023-05-07T03:36:30;30.00;;;24.40;;
37091;SDS011;23005;51.998;4.502;2023-05-07T03:37:51;28.65;;;22.85;;
37091;SDS011;23005;51.998;4.502;2023-05-07T03:39:11;31.65;;;26.50;;
37091;SDS011;23005;51.998;4.502;2023-05-07T03:40:32;27.70;;;23.90;;
37091;SDS011;23005;51.998;4.502;2023-05-07T03:41:52;27.65;;;23.02;;
37091;SDS011;23005;51.998;4.502;2023-05-07T03:43:13;27.55;;;22.83;;
37091;SDS011;23005;51.998;4.502;2023-05-07T03:44:33;28.13;;;22.92;;
37091;SDS011;23005;51.998;4.502;2023-05-07T03:45:58;24.23;;;21.13;;
37091;SDS011;23005;51.998;4.502;2023-05-07T03:47:19;26.70;;;21.65;;
37091;SDS011;23005;51.998;4.502;2023-05-07T03:48:39;26.80;;;21.98;;
37091;SDS011;23005;51.998;4.502;2023-05-07T03:50:00;27.77;;;22.45;;
37091;SDS011;23005;51.998;4.502;2023-05-07T03:51:21;24.77;;;21.33;;
37091;SDS011;23005;51.998;4.502;2023-05-07T03:52:41;26.90;;;21.30;;
37091;SDS011;23005;51.998;4.502;2023-05-07T03:54:02;26.20;;;21.65;;
37091;SDS011;23005;51.998;4.502;2023-05-07T03:55:23;27.23;;;21.77;;
37091;SDS011;23005;51.998;4.502;2023-05-07T03:56:43;32.30;;;24.05;;
37091;SDS011;23005;51.998;4.502;2023-05-07T03:58:04;28.40;;;23.27;;
37091;SDS011;23005;51.998;4.502;2023-05-07T03:59:24;29.08;;;24.30;;
37091;SDS011;23005;51.998;4.502;2023-05-07T04:00:45;28.67;;;23.37;;
37091;SDS011;23005;51.998;4.502;2023-05-07T04:02:07;26.50;;;22.15;;
37091;SDS011;23005;51.998;4.502;2023-05-07T04:03:29;26.63;;;22.60;;
37091;SDS011;23005;51.998;4.502;2023-05-07T04:04:50;30.10;;;25.00;;
37091;SDS011;23005;51.998;4.502;2023-05-07T04:06:11;28.88;;;23.23;;
37091;SDS011;23005;51.998;4.502;2023-05-07T04:07:32;30.13;;;25.40;;
37091;SDS011;23005;51.998;4.502;2023-05-07T04:08:52;31.77;;;23.45;;
37091;SDS011;23005;51.998;4.502;2023-05-07T04:10:12;31.10;;;23.25;;
37091;SDS011;23005;51.998;4.502;2023-05-07T04:11:33;29.20;;;22.73;;
37091;SDS011;23005;51.998;4.502;2023-05-07T04:12:56;26.50;;;22.48;;
37091;SDS011;23005;51.998;4.502;2023-05-07T04:14:17;30.23;;;23.43;;
37091;SDS011;23005;51.998;4.502;2023-05-07T04:15:38;32.10;;;23.70;;
37091;SDS011;23005;51.998;4.502;2023-05-07T04:16:58;28.55;;;24.05;;
37091;SDS011;23005;51.998;4.502;2023-05-07T04:18:20;38.90;;;27.45;;
37091;SDS011;23005;51.998;4.502;2023-05-07T04:19:41;28.58;;;23.67;;
37091;SDS011;23005;51.998;4.502;2023-05-07T04:21:02;32.75;;;22.33;;
37091;SDS011;23005;51.998;4.502;2023-05-07T04:22:25;29.58;;;22.65;;
37091;SDS011;23005;51.998;4.502;2023-05-07T04:23:46;27.70;;;22.90;;
37091;SDS011;23005;51.998;4.502;2023-05-07T04:25:08;33.20;;;23.33;;
37091;SDS011;23005;51.998;4.502;2023-05-07T04:26:29;28.17;;;20.45;;
37091;SDS011;23005;51.998;4.502;2023-05-07T04:27:50;27.67;;;21.75;;
37091;SDS011;23005;51.998;4.502;2023-05-07T04:29:10;31.60;;;22.63;;
37091;SDS011;23005;51.998;4.502;2023-05-07T04:30:30;31.67;;;21.80;;
37091;SDS011;23005;51.998;4.502;2023-05-07T04:31:51;29.73;;;21.52;;
37091;SDS011;23005;51.998;4.502;2023-05-07T04:33:11;24.83;;;20.67;;
37091;SDS011;23005;51.998;4.502;2023-05-07T04:34:38;27.05;;;21.55;;
37091;SDS011;23005;51.998;4.502;2023-05-07T04:36:00;24.50;;;20.10;;
37091;SDS011;23005;51.998;4.502;2023-05-07T04:37:21;26.58;;;20.92;;
37091;SDS011;23005;51.998;4.502;2023-05-07T04:38:41;22.77;;;19.95;;
37091;SDS011;23005;51.998;4.502;2023-05-07T04:40:02;24.73;;;19.60;;
37091;SDS011;23005;51.998;4.502;2023-05-07T04:41:23;23.48;;;19.10;;
37091;SDS011;23005;51.998;4.502;2023-05-07T04:42:43;28.80;;;21.23;;
37091;SDS011;23005;51.998;4.502;2023-05-07T04:44:04;24.15;;;19.85;;
37091;SDS011;23005;51.998;4.502;2023-05-07T04:45:24;25.90;;;21.83;;
37091;SDS011;23005;51.998;4.502;2023-05-07T04:46:45;25.80;;;20.50;;
37091;SDS011;23005;51.998;4.502;2023-05-07T04:48:06;25.53;;;21.60;;
37091;SDS011;23005;51.998;4.502;2023-05-07T04:49:26;27.27;;;20.25;;
37091;SDS011;23005;51.998;4.502;2023-05-07T04:50:49;29.42;;;22.33;;
37091;SDS011;23005;51.998;4.502;2023-05-07T04:52:10;26.48;;;21.05;;
37091;SDS011;23005;51.998;4.502;2023-05-07T04:53:30;27.70;;;17.83;;
37091;SDS011;23005;51.998;4.502;2023-05-07T04:54:51;26.27;;;19.97;;
37091;SDS011;23005;51.998;4.502;2023-05-07T04:56:12;25.80;;;22.42;;
37091;SDS011;23005;51.998;4.502;2023-05-07T04:57:33;24.90;;;18.92;;
37091;SDS011;23005;51.998;4.502;2023-05-07T04:58:53;24.90;;;19.48;;
37091;SDS011;23005;51.998;4.502;2023-05-07T05:00:14;25.10;;;19.02;;
37091;SDS011;23005;51.998;4.502;2023-05-07T05:01:34;22.97;;;18.53;;
37091;SDS011;23005;51.998;4.502;2023-05-07T05:02:55;24.60;;;19.55;;
37091;SDS011;23005;51.998;4.502;2023-05-07T05:04:15;27.73;;;20.48;;
37091;SDS011;23005;51.998;4.502;2023-05-07T05:05:36;31.00;;;22.35;;
37091;SDS011;23005;51.998;4.502;2023-05-07T05:06:58;20.95;;;17.67;;
37091;SDS011;23005;51.998;4.502;2023-05-07T05:08:19;24.40;;;19.48;;
37091;SDS011;23005;51.998;4.502;2023-05-07T05:09:39;21.00;;;17.60;;
37091;SDS011;23005;51.998;4.502;2023-05-07T05:11:00;21.80;;;17.85;;
37091;SDS011;23005;51.998;4.502;2023-05-07T05:12:21;21.67;;;18.50;;
37091;SDS011;23005;51.998;4.502;2023-05-07T05:13:41;26.35;;;18.77;;
37091;SDS011;23005;51.998;4.502;2023-05-07T05:15:02;22.42;;;17.80;;
37091;SDS011;23005;51.998;4.502;2023-05-07T05:16:24;22.80;;;18.45;;
37091;SDS011;23005;51.998;4.502;2023-05-07T05:17:44;22.48;;;18.77;;
37091;SDS011;23005;51.998;4.502;2023-05-07T05:19:05;20.88;;;18.15;;
37091;SDS011;23005;51.998;4.502;2023-05-07T05:20:25;21.60;;;17.95;;
37091;SDS011;23005;51.998;4.502;2023-05-07T05:21:46;20.90;;;17.08;;
37091;SDS011;23005;51.998;4.502;2023-05-07T05:23:08;23.20;;;18.13;;
37091;SDS011;23005;51.998;4.502;2023-05-07T05:24:29;23.60;;;18.35;;
37091;SDS011;23005;51.998;4.502;2023-05-07T05:25:49;24.45;;;19.23;;
37091;SDS011;23005;51.998;4.502;2023-05-07T05:27:10;24.42;;;20.15;;
37091;SDS011;23005;51.998;4.502;2023-05-07T05:28:30;25.80;;;19.77;;
37091;SDS011;23005;51.998;4.502;2023-05-07T05:29:51;23.30;;;19.10;;
37091;SDS011;23005;51.998;4.502;2023-05-07T05:31:11;23.48;;;18.70;;
37091;SDS011;23005;51.998;4.502;2023-05-07T05:32:32;27.25;;;19.38;;
37091;SDS011;23005;51.998;4.502;2023-05-07T05:33:54;26.95;;;18.48;;
37091;SDS011;23005;51.998;4.502;2023-05-07T05:35:14;19.75;;;16.73;;
37091;SDS011;23005;51.998;4.502;2023-05-07T05:36:35;20.97;;;17.97;;
37091;SDS011;23005;51.998;4.502;2023-05-07T05:37:55;21.83;;;17.97;;
37091;SDS011;23005;51.998;4.502;2023-05-07T05:39:17;22.15;;;16.88;;
37091;SDS011;23005;51.998;4.502;2023-05-07T05:41:58;23.83;;;18.35;;
37091;SDS011;23005;51.998;4.502;2023-05-07T05:43:18;24.13;;;18.23;;
37091;SDS011;23005;51.998;4.502;2023-05-07T05:44:39;25.10;;;19.45;;
37091;SDS011;23005;51.998;4.502;2023-05-07T05:45:59;27.27;;;19.65;;
37091;SDS011;23005;51.998;4.502;2023-05-07T05:47:20;24.20;;;19.13;;
37091;SDS011;23005;51.998;4.502;2023-05-07T05:48:40;29.75;;;20.60;;
37091;SDS011;23005;51.998;4.502;2023-05-07T05:50:01;24.60;;;20.08;;
37091;SDS011;23005;51.998;4.502;2023-05-07T05:51:21;26.20;;;18.90;;
37091;SDS011;23005;51.998;4.502;2023-05-07T05:52:42;20.13;;;17.40;;
37091;SDS011;23005;51.998;4.502;2023-05-07T05:54:03;23.33;;;18.77;;
37091;SDS011;23005;51.998;4.502;2023-05-07T05:55:25;27.88;;;21.98;;
37091;SDS011;23005;51.998;4.502;2023-05-07T05:56:46;26.95;;;19.42;;
37091;SDS011;23005;51.998;4.502;2023-05-07T05:58:06;24.75;;;18.40;;
37091;SDS011;23005;51.998;4.502;2023-05-07T05:59:27;25.85;;;18.63;;
37091;SDS011;23005;51.998;4.502;2023-05-07T06:00:47;25.52;;;20.42;;
37091;SDS011;23005;51.998;4.502;2023-05-07T06:02:08;28.45;;;23.08;;
37091;SDS011;23005;51.998;4.502;2023-05-07T06:03:28;26.55;;;20.08;;
37091;SDS011;23005;51.998;4.502;2023-05-07T06:04:48;23.50;;;18.38;;
37091;SDS011;23005;51.998;4.502;2023-05-07T06:06:09;26.92;;;21.23;;
37091;SDS011;23005;51.998;4.502;2023-05-07T06:07:30;27.50;;;20.20;;
37091;SDS011;23005;51.998;4.502;2023-05-07T06:08:50;30.27;;;23.27;;
37091;SDS011;23005;51.998;4.502;2023-05-07T06:10:10;27.67;;;20.98;;
37091;SDS011;23005;51.998;4.502;2023-05-07T06:11:33;31.92;;;22.77;;
37091;SDS011;23005;51.998;4.502;2023-05-07T06:12:53;31.08;;;23.83;;
37091;SDS011;23005;51.998;4.502;2023-05-07T06:14:14;31.25;;;24.40;;
37091;SDS011;23005;51.998;4.502;2023-05-07T06:15:34;33.97;;;25.25;;
37091;SDS011;23005;51.998;4.502;2023-05-07T06:16:55;33.47;;;25.85;;
37091;SDS011;23005;51.998;4.502;2023-05-07T06:18:16;26.30;;;20.75;;
37091;SDS011;23005;51.998;4.502;2023-05-07T06:19:37;31.88;;;24.55;;
37091;SDS011;23005;51.998;4.502;2023-05-07T06:20:58;30.25;;;23.20;;
37091;SDS011;23005;51.998;4.502;2023-05-07T06:22:18;29.02;;;23.52;;
37091;SDS011;23005;51.998;4.502;2023-05-07T06:23:39;33.37;;;24.80;;
37091;SDS011;23005;51.998;4.502;2023-05-07T06:25:00;35.20;;;24.57;;
37091;SDS011;23005;51.998;4.502;2023-05-07T06:26:21;27.58;;;22.35;;
37091;SDS011;23005;51.998;4.502;2023-05-07T06:27:42;31.30;;;24.27;;
37091;SDS011;23005;51.998;4.502;2023-05-07T06:29:03;30.92;;;24.05;;
37091;SDS011;23005;51.998;4.502;2023-05-07T06:30:23;32.50;;;25.08;;
37091;SDS011;23005;51.998;4.502;2023-05-07T06:31:44;30.98;;;23.50;;
37091;SDS011;23005;51.998;4.502;2023-05-07T06:33:05;33.37;;;26.10;;
37091;SDS011;23005;51.998;4.502;2023-05-07T06:34:26;32.40;;;25.55;;
37091;SDS011;23005;51.998;4.502;2023-05-07T06:35:46;27.55;;;23.58;;
37091;SDS011;23005;51.998;4.502;2023-05-07T06:37:07;30.80;;;25.27;;
37091;SDS011;23005;51.998;4.502;2023-05-07T06:38:28;30.88;;;22.83;;
37091;SDS011;23005;51.998;4.502;2023-05-07T06:39:49;32.95;;;26.63;;
37091;SDS011;23005;51.998;4.502;2023-05-07T06:41:09;30.67;;;24.35;;
37091;SDS011;23005;51.998;4.502;2023-05-07T06:42:30;28.00;;;23.52;;
37091;SDS011;23005;51.998;4.502;2023-05-07T06:43:52;32.65;;;26.10;;
37091;SDS011;23005;51.998;4.502;2023-05-07T06:45:12;32.15;;;23.90;;
37091;SDS011;23005;51.998;4.502;2023-05-07T06:46:33;35.42;;;28.20;;
37091;SDS011;23005;51.998;4.502;2023-05-07T06:47:56;26.02;;;23.02;;
37091;SDS011;23005;51.998;4.502;2023-05-07T06:49:17;31.20;;;25.47;;
37091;SDS011;23005;51.998;4.502;2023-05-07T06:50:38;40.38;;;29.80;;
37091;SDS011;23005;51.998;4.502;2023-05-07T06:51:59;32.95;;;24.88;;
37091;SDS011;23005;51.998;4.502;2023-05-07T06:53:19;32.08;;;24.50;;
37091;SDS011;23005;51.998;4.502;2023-05-07T06:54:40;35.35;;;25.13;;
37091;SDS011;23005;51.998;4.502;2023-05-07T06:56:00;33.92;;;24.48;;
37091;SDS011;23005;51.998;4.502;2023-05-07T06:57:21;29.90;;;25.30;;
37091;SDS011;23005;51.998;4.502;2023-05-07T06:58:41;35.58;;;28.95;;
37091;SDS011;23005;51.998;4.502;2023-05-07T07:00:03;38.05;;;29.08;;
37091;SDS011;23005;51.998;4.502;2023-05-07T07:01:25;38.20;;;27.42;;
37091;SDS011;23005;51.998;4.502;2023-05-07T07:02:45;38.13;;;27.13;;
37091;SDS011;23005;51.998;4.502;2023-05-07T07:04:06;35.38;;;28.80;;
37091;SDS011;23005;51.998;4.502;2023-05-07T07:05:27;38.15;;;28.05;;
37091;SDS011;23005;51.998;4.502;2023-05-07T07:06:47;31.63;;;24.95;;
37091;SDS011;23005;51.998;4.502;2023-05-07T07:08:08;36.60;;;27.10;;
37091;SDS011;23005;51.998;4.502;2023-05-07T07:09:29;29.70;;;23.05;;
37091;SDS011;23005;51.998;4.502;2023-05-07T07:10:50;39.60;;;30.23;;
37091;SDS011;23005;51.998;4.502;2023-05-07T07:12:10;36.83;;;26.17;;
37091;SDS011;23005;51.998;4.502;2023-05-07T07:13:31;32.70;;;25.90;;
37091;SDS011;23005;51.998;4.502;2023-05-07T07:14:51;32.33;;;25.75;;
37091;SDS011;23005;51.998;4.502;2023-05-07T07:16:15;32.65;;;24.90;;
37091;SDS011;23005;51.998;4.502;2023-05-07T07:17:36;33.00;;;25.65;;
37091;SDS011;23005;51.998;4.502;2023-05-07T07:18:56;34.10;;;25.23;;
37091;SDS011;23005;51.998;4.502;2023-05-07T07:20:17;32.22;;;24.17;;
37091;SDS011;23005;51.998;4.502;2023-05-07T07:21:37;34.65;;;24.00;;
37091;SDS011;23005;51.998;4.502;2023-05-07T07:22:57;31.35;;;23.17;;
37091;SDS011;23005;51.998;4.502;2023-05-07T07:24:18;31.75;;;24.40;;
37091;SDS011;23005;51.998;4.502;2023-05-07T07:25:38;34.05;;;26.67;;
37091;SDS011;23005;51.998;4.502;2023-05-07T07:26:59;33.78;;;23.85;;
37091;SDS011;23005;51.998;4.502;2023-05-07T07:28:20;29.45;;;23.80;;
37091;SDS011;23005;51.998;4.502;2023-05-07T07:29:41;31.63;;;23.48;;
37091;SDS011;23005;51.998;4.502;2023-05-07T07:31:01;28.95;;;22.80;;
37091;SDS011;23005;51.998;4.502;2023-05-07T07:32:23;28.27;;;22.38;;
37091;SDS011;23005;51.998;4.502;2023-05-07T07:33:44;27.90;;;20.42;;
37091;SDS011;23005;51.998;4.502;2023-05-07T07:35:05;30.20;;;22.20;;
37091;SDS011;23005;51.998;4.502;2023-05-07T07:38:04;28.75;;;23.10;;
37091;SDS011;23005;51.998;4.502;2023-05-07T07:39:24;28.05;;;22.13;;
37091;SDS011;23005;51.998;4.502;2023-05-07T07:40:45;32.13;;;22.75;;
37091;SDS011;23005;51.998;4.502;2023-05-07T07:42:07;30.60;;;22.40;;
37091;SDS011;23005;51.998;4.502;2023-05-07T07:43:27;24.42;;;19.67;;
37091;SDS011;23005;51.998;4.502;2023-05-07T07:44:48;30.25;;;24.05;;
37091;SDS011;23005;51.998;4.502;2023-05-07T07:46:09;25.15;;;19.10;;
37091;SDS011;23005;51.998;4.502;2023-05-07T07:47:30;31.52;;;22.13;;
37091;SDS011;23005;51.998;4.502;2023-05-07T07:48:51;29.98;;;22.42;;
37091;SDS011;23005;51.998;4.502;2023-05-07T07:50:12;28.40;;;23.73;;
37091;SDS011;23005;51.998;4.502;2023-05-07T07:51:44;25.77;;;19.33;;
37091;SDS011;23005;51.998;4.502;2023-05-07T07:53:04;28.23;;;19.23;;
37091;SDS011;23005;51.998;4.502;2023-05-07T07:54:25;26.37;;;21.13;;
37091;SDS011;23005;51.998;4.502;2023-05-07T07:55:46;23.38;;;18.15;;
37091;SDS011;23005;51.998;4.502;2023-05-07T07:57:06;29.27;;;20.35;;
37091;SDS011;23005;51.998;4.502;2023-05-07T07:58:27;27.95;;;20.50;;
37091;SDS011;23005;51.998;4.502;2023-05-07T07:59:47;24.25;;;18.75;;
37091;SDS011;23005;51.998;4.502;2023-05-07T08:01:08;27.30;;;19.57;;
37091;SDS011;23005;51.998;4.502;2023-05-07T08:02:28;26.13;;;20.40;;
37091;SDS011;23005;51.998;4.502;2023-05-07T08:03:50;28.83;;;20.50;;
37091;SDS011;23005;51.998;4.502;2023-05-07T08:05:11;24.33;;;18.38;;